createdAt,value
2024-02-29T00:00:16.448Z,7.80
2024-02-29T00:01:07.290Z,7.13
2024-02-29T00:01:58.818Z,7.10
2024-02-29T00:02:49.832Z,7.05
2024-02-29T00:03:40.682Z,7.32
2024-02-29T00:04:32.959Z,7.50
2024-02-29T00:05:26.204Z,7.38
2024-02-29T00:06:16.856Z,6.47
2024-02-29T00:07:07.912Z,7.30
2024-02-29T00:07:58.733Z,7.15
2024-02-29T00:08:50.140Z,6.88
2024-02-29T00:09:41.106Z,7.88
2024-02-29T00:10:32.018Z,7.10
2024-02-29T00:11:22.925Z,6.60
2024-02-29T00:12:13.750Z,6.45
2024-02-29T00:13:04.877Z,6.97
2024-02-29T00:13:55.929Z,6.57
2024-02-29T00:14:46.381Z,6.70
2024-02-29T00:15:37.326Z,6.80
2024-02-29T00:16:28.219Z,6.53
2024-02-29T00:17:22.550Z,6.05
2024-02-29T00:18:13.809Z,7.18
2024-02-29T00:19:05.096Z,6.15
2024-02-29T00:19:55.801Z,6.25
2024-02-29T00:20:46.618Z,7.30
2024-02-29T00:21:39.456Z,5.90
2024-02-29T00:22:31.498Z,6.65
2024-02-29T00:23:22.367Z,6.95
2024-02-29T00:24:13.419Z,6.63
2024-02-29T00:25:04.513Z,7.55
2024-02-29T00:25:55.647Z,7.22
2024-02-29T00:26:46.756Z,6.32
2024-02-29T00:27:37.314Z,5.85
2024-02-29T00:28:28.255Z,6.38
2024-02-29T00:29:19.176Z,7.13
2024-02-29T00:30:11.445Z,6.55
2024-02-29T00:31:02.539Z,5.80
2024-02-29T00:31:53.692Z,6.57
2024-02-29T00:32:44.447Z,6.68
2024-02-29T00:33:35.335Z,6.70
2024-02-29T00:34:26.123Z,6.65
2024-02-29T00:35:17.151Z,6.22
2024-02-29T00:36:10.102Z,5.80
2024-02-29T00:37:01.601Z,6.53
2024-02-29T00:37:52.626Z,6.63
2024-02-29T00:38:43.578Z,5.72
2024-02-29T00:39:34.455Z,6.45
2024-02-29T00:40:25.425Z,6.45
2024-02-29T00:41:16.518Z,6.07
2024-02-29T00:42:07.169Z,6.05
2024-02-29T00:42:57.785Z,6.15
2024-02-29T00:43:48.792Z,6.50
2024-02-29T00:44:39.734Z,6.68
2024-02-29T00:45:30.595Z,6.70
2024-02-29T00:46:21.342Z,6.38
2024-02-29T00:47:13.061Z,6.65
2024-02-29T00:48:04.131Z,6.57
2024-02-29T00:48:55.101Z,6.40
2024-02-29T00:49:45.924Z,6.38
2024-02-29T00:50:37.011Z,6.85
2024-02-29T00:51:28.082Z,6.78
2024-02-29T00:52:18.825Z,6.30
2024-02-29T00:53:09.723Z,6.30
2024-02-29T00:54:00.607Z,6.00
2024-02-29T00:54:51.444Z,6.38
2024-02-29T00:55:42.360Z,6.32
2024-02-29T00:56:33.351Z,7.10
2024-02-29T00:57:24.449Z,7.13
2024-02-29T00:58:15.261Z,6.07
2024-02-29T00:59:06.138Z,6.47
2024-02-29T00:59:57.004Z,6.63
2024-02-29T01:00:49.533Z,6.28
2024-02-29T01:01:40.334Z,6.78
2024-02-29T01:02:31.092Z,6.25
2024-02-29T01:03:21.960Z,6.55
2024-02-29T01:04:12.703Z,6.22
2024-02-29T01:05:04.338Z,6.32
2024-02-29T01:05:55.633Z,6.93
2024-02-29T01:06:46.621Z,6.95
2024-02-29T01:07:37.853Z,6.93
2024-02-29T01:08:28.664Z,6.03
2024-02-29T01:09:21.456Z,5.93
2024-02-29T01:10:15.386Z,5.80
2024-02-29T01:11:06.781Z,6.53
2024-02-29T01:11:58.033Z,6.28
2024-02-29T01:12:48.960Z,7.20
2024-02-29T01:13:39.778Z,6.53
2024-02-29T01:14:30.914Z,6.88
2024-02-29T01:15:21.821Z,7.07
2024-02-29T01:16:12.729Z,6.13
2024-02-29T01:17:03.520Z,6.50
2024-02-29T01:17:54.400Z,6.55
2024-02-29T01:18:45.455Z,6.97
2024-02-29T01:19:36.417Z,6.00
2024-02-29T01:20:27.234Z,6.82
2024-02-29T01:21:18.205Z,6.03
2024-02-29T01:22:09.135Z,6.55
2024-02-29T01:22:59.988Z,6.82
2024-02-29T01:23:50.779Z,6.30
2024-02-29T01:24:41.799Z,5.65
2024-02-29T01:25:32.688Z,6.75
2024-02-29T01:26:23.561Z,6.22
2024-02-29T01:27:14.515Z,6.05
2024-02-29T01:28:05.822Z,6.65
2024-02-29T01:28:57.385Z,6.18
2024-02-29T01:29:48.471Z,6.78
2024-02-29T01:30:39.464Z,6.20
2024-02-29T01:31:30.308Z,6.32
2024-02-29T01:32:26.508Z,5.90
2024-02-29T01:33:19.146Z,6.82
2024-02-29T01:34:10.038Z,7.05
2024-02-29T01:35:00.881Z,6.57
2024-02-29T01:35:51.780Z,6.57
2024-02-29T01:36:45.714Z,6.57
2024-02-29T01:37:36.430Z,5.70
2024-02-29T01:38:27.161Z,6.32
2024-02-29T01:39:18.942Z,6.85
2024-02-29T01:40:10.445Z,6.47
2024-02-29T01:41:01.226Z,6.13
2024-02-29T01:41:52.157Z,5.88
2024-02-29T01:42:43.152Z,6.18
2024-02-29T01:43:33.943Z,6.50
2024-02-29T01:44:24.738Z,6.25
2024-02-29T01:45:17.762Z,6.15
2024-02-29T01:46:15.510Z,6.82
2024-02-29T01:47:07.941Z,6.38
2024-02-29T01:48:00.858Z,6.65
2024-02-29T01:48:53.103Z,5.40
2024-02-29T01:50:37.336Z,5.88
2024-02-29T01:51:28.733Z,6.50
2024-02-29T01:52:21.324Z,5.90
2024-02-29T01:53:12.399Z,6.68
2024-02-29T01:54:03.403Z,6.47
2024-02-29T01:54:54.188Z,5.97
2024-02-29T01:55:45.160Z,7.35
2024-02-29T01:56:36.197Z,6.13
2024-02-29T01:57:27.806Z,5.95
2024-02-29T01:58:19.370Z,6.65
2024-02-29T01:59:11.092Z,6.82
2024-02-29T02:00:03.877Z,6.43
2024-02-29T02:00:55.047Z,6.55
2024-02-29T02:01:45.918Z,6.13
2024-02-29T02:02:39.444Z,6.65
2024-02-29T02:03:31.057Z,6.68
2024-02-29T02:04:21.655Z,6.90
2024-02-29T02:05:12.697Z,6.45
2024-02-29T02:06:03.394Z,6.50
2024-02-29T02:06:57.640Z,6.40
2024-02-29T02:07:49.405Z,6.20
2024-02-29T02:08:39.955Z,6.32
2024-02-29T02:09:30.960Z,5.50
2024-02-29T02:10:22.816Z,6.57
2024-02-29T02:11:13.989Z,6.20
2024-02-29T02:12:05.110Z,5.68
2024-02-29T02:12:55.968Z,5.93
2024-02-29T02:13:47.146Z,6.10
2024-02-29T02:14:41.531Z,6.38
2024-02-29T02:15:32.242Z,6.88
2024-02-29T02:16:23.053Z,6.32
2024-02-29T02:17:14.244Z,6.35
2024-02-29T02:18:05.174Z,6.28
2024-02-29T02:18:56.607Z,6.03
2024-02-29T02:19:48.560Z,6.00
2024-02-29T02:21:30.531Z,7.03
2024-02-29T02:22:21.340Z,6.82
2024-02-29T02:23:12.272Z,6.22
2024-02-29T02:24:03.258Z,6.57
2024-02-29T02:24:54.206Z,5.75
2024-02-29T02:25:45.043Z,6.38
2024-02-29T02:26:36.054Z,6.70
2024-02-29T02:27:26.991Z,6.15
2024-02-29T02:28:18.044Z,6.50
2024-02-29T02:29:09.037Z,7.18
2024-02-29T02:30:00.218Z,5.88
2024-02-29T02:30:50.966Z,6.80
2024-02-29T02:31:41.788Z,6.13
2024-02-29T02:32:32.736Z,6.22
2024-02-29T02:33:23.571Z,6.78
2024-02-29T02:34:14.846Z,6.30
2024-02-29T02:35:05.988Z,6.60
2024-02-29T02:35:57.044Z,6.65
2024-02-29T02:36:48.656Z,6.63
2024-02-29T02:37:39.765Z,6.63
2024-02-29T02:38:30.560Z,6.82
2024-02-29T02:39:21.060Z,6.30
2024-02-29T02:40:12.318Z,6.65
2024-02-29T02:41:03.463Z,6.15
2024-02-29T02:41:54.304Z,7.00
2024-02-29T02:42:47.521Z,6.13
2024-02-29T02:43:38.169Z,6.20
2024-02-29T02:44:29.203Z,6.30
2024-02-29T02:45:19.746Z,5.65
2024-02-29T02:46:10.739Z,6.15
2024-02-29T02:47:01.644Z,5.38
2024-02-29T02:47:52.577Z,6.80
2024-02-29T02:48:43.612Z,6.30
2024-02-29T02:49:34.308Z,6.57
2024-02-29T02:50:25.959Z,6.00
2024-02-29T02:51:16.714Z,6.97
2024-02-29T02:52:07.475Z,6.10
2024-02-29T02:52:58.334Z,6.45
2024-02-29T02:53:49.238Z,5.93
2024-02-29T02:54:41.000Z,5.03
2024-02-29T02:55:32.009Z,6.70
2024-02-29T02:56:22.644Z,5.30
2024-02-29T02:57:13.784Z,6.38
2024-02-29T02:58:05.047Z,6.13
2024-02-29T02:58:56.010Z,5.93
2024-02-29T02:59:46.935Z,6.32
2024-02-29T03:00:38.024Z,6.68
2024-02-29T03:01:30.050Z,6.60
2024-02-29T03:03:11.497Z,5.85
2024-02-29T03:04:02.632Z,6.38
2024-02-29T03:04:53.608Z,5.68
2024-02-29T03:05:44.772Z,5.90
2024-02-29T03:06:35.740Z,5.53
2024-02-29T03:07:26.869Z,6.35
2024-02-29T03:08:17.457Z,6.15
2024-02-29T03:09:09.132Z,6.45
2024-02-29T03:10:00.365Z,5.60
2024-02-29T03:10:51.618Z,6.35
2024-02-29T03:11:42.492Z,5.63
2024-02-29T03:12:33.434Z,7.03
2024-02-29T03:13:24.277Z,6.47
2024-02-29T03:14:16.255Z,5.95
2024-02-29T03:15:07.823Z,6.40
2024-02-29T03:15:58.697Z,6.10
2024-02-29T03:16:49.406Z,5.43
2024-02-29T03:17:40.432Z,6.07
2024-02-29T03:18:31.286Z,5.97
2024-02-29T03:19:22.253Z,6.35
2024-02-29T03:20:15.877Z,6.22
2024-02-29T03:21:07.263Z,5.38
2024-02-29T03:21:58.478Z,5.55
2024-02-29T03:22:49.640Z,6.07
2024-02-29T03:23:40.653Z,6.40
2024-02-29T03:24:31.521Z,6.43
2024-02-29T03:25:22.516Z,6.10
2024-02-29T03:26:13.322Z,6.68
2024-02-29T03:27:04.214Z,6.25
2024-02-29T03:27:55.613Z,5.90
2024-02-29T03:28:46.478Z,6.85
2024-02-29T03:29:37.325Z,5.97
2024-02-29T03:30:28.381Z,7.05
2024-02-29T03:31:19.754Z,5.68
2024-02-29T03:32:11.540Z,6.45
2024-02-29T03:33:02.672Z,5.82
2024-02-29T03:33:53.911Z,5.85
2024-02-29T03:34:44.728Z,6.32
2024-02-29T03:35:35.871Z,6.53
2024-02-29T03:36:28.481Z,5.65
2024-02-29T03:37:19.675Z,6.75
2024-02-29T03:38:10.615Z,7.05
2024-02-29T03:39:01.378Z,5.88
2024-02-29T03:39:52.131Z,5.78
2024-02-29T03:40:43.741Z,6.30
2024-02-29T03:41:34.569Z,6.72
2024-02-29T03:42:25.167Z,6.20
2024-02-29T03:43:16.120Z,5.78
2024-02-29T03:44:07.028Z,6.20
2024-02-29T03:44:58.395Z,5.95
2024-02-29T03:45:49.407Z,6.55
2024-02-29T03:46:40.342Z,5.55
2024-02-29T03:47:31.471Z,5.90
2024-02-29T03:48:22.179Z,6.05
2024-02-29T03:49:13.309Z,5.70
2024-02-29T03:50:04.490Z,5.43
2024-02-29T03:50:55.109Z,6.10
2024-02-29T03:51:45.805Z,6.30
2024-02-29T03:52:36.920Z,7.65
2024-02-29T03:53:27.646Z,5.88
2024-02-29T03:54:18.461Z,6.38
2024-02-29T03:55:10.463Z,5.78
2024-02-29T03:56:01.806Z,6.53
2024-02-29T03:56:52.592Z,5.80
2024-02-29T03:57:43.395Z,6.40
2024-02-29T03:58:34.285Z,5.50
2024-02-29T03:59:26.172Z,6.13
2024-02-29T04:01:11.703Z,5.47
2024-02-29T04:02:03.191Z,6.40
2024-02-29T04:02:53.963Z,6.15
2024-02-29T04:03:45.704Z,6.35
2024-02-29T04:04:36.605Z,6.43
2024-02-29T04:05:27.603Z,6.40
2024-02-29T04:06:18.388Z,5.47
2024-02-29T04:07:09.348Z,6.32
2024-02-29T04:08:04.821Z,6.18
2024-02-29T04:08:56.045Z,6.32
2024-02-29T04:09:46.796Z,6.22
2024-02-29T04:10:47.386Z,5.80
2024-02-29T04:11:38.690Z,6.13
2024-02-29T04:12:29.634Z,5.50
2024-02-29T04:13:20.604Z,6.13
2024-02-29T04:14:11.544Z,6.65
2024-02-29T04:15:02.838Z,5.68
2024-02-29T04:15:53.893Z,6.15
2024-02-29T04:16:44.685Z,5.55
2024-02-29T04:17:35.655Z,5.55
2024-02-29T04:18:26.519Z,5.57
2024-02-29T04:19:17.859Z,6.45
2024-02-29T04:20:09.824Z,5.90
2024-02-29T04:21:00.896Z,5.72
2024-02-29T04:21:54.091Z,6.13
2024-02-29T04:22:45.129Z,5.35
2024-02-29T04:23:36.123Z,5.78
2024-02-29T04:24:27.433Z,6.72
2024-02-29T04:25:18.053Z,5.75
2024-02-29T04:26:08.904Z,5.80
2024-02-29T04:26:59.873Z,5.38
2024-02-29T04:27:52.254Z,6.05
2024-02-29T04:28:43.199Z,6.78
2024-02-29T04:29:34.460Z,6.22
2024-02-29T04:30:25.158Z,5.30
2024-02-29T04:31:16.266Z,5.43
2024-02-29T04:32:08.315Z,7.25
2024-02-29T04:33:52.212Z,5.43
2024-02-29T04:34:43.453Z,6.95
2024-02-29T04:35:34.976Z,5.68
2024-02-29T04:36:25.936Z,6.50
2024-02-29T04:37:17.089Z,6.18
2024-02-29T04:38:08.168Z,7.15
2024-02-29T04:38:59.066Z,6.07
2024-02-29T04:39:50.094Z,6.28
2024-02-29T04:40:40.885Z,5.93
2024-02-29T04:41:31.907Z,6.78
2024-02-29T04:42:22.828Z,5.50
2024-02-29T04:43:13.601Z,5.72
2024-02-29T04:44:04.384Z,6.25
2024-02-29T04:44:55.343Z,5.55
2024-02-29T04:45:46.358Z,5.93
2024-02-29T04:46:37.588Z,6.18
2024-02-29T04:47:28.542Z,6.28
2024-02-29T04:48:19.320Z,6.40
2024-02-29T04:49:10.274Z,5.70
2024-02-29T04:50:01.376Z,6.28
2024-02-29T04:50:52.003Z,6.57
2024-02-29T04:51:43.011Z,6.30
2024-02-29T04:52:33.872Z,6.30
2024-02-29T04:53:24.854Z,5.40
2024-02-29T04:54:15.582Z,5.25
2024-02-29T04:55:06.682Z,5.50
2024-02-29T04:55:58.283Z,6.03
2024-02-29T04:56:48.841Z,5.63
2024-02-29T04:57:39.818Z,5.90
2024-02-29T04:58:31.153Z,6.35
2024-02-29T04:59:22.030Z,6.47
2024-02-29T05:00:14.311Z,6.47
2024-02-29T05:01:05.710Z,6.65
2024-02-29T05:01:56.597Z,6.05
2024-02-29T05:02:47.432Z,6.72
2024-02-29T05:03:38.341Z,7.38
2024-02-29T05:04:29.386Z,5.65
2024-02-29T05:05:20.358Z,6.45
2024-02-29T05:06:15.513Z,6.13
2024-02-29T05:07:06.232Z,6.07
2024-02-29T05:07:57.137Z,7.07
2024-02-29T05:08:48.441Z,6.18
2024-02-29T05:09:39.687Z,5.25
2024-02-29T05:10:30.499Z,5.78
2024-02-29T05:11:21.577Z,5.85
2024-02-29T05:12:12.689Z,6.00
2024-02-29T05:13:03.745Z,6.40
2024-02-29T05:13:54.598Z,6.43
2024-02-29T05:14:45.412Z,7.05
2024-02-29T05:15:37.254Z,6.93
2024-02-29T05:16:28.474Z,6.20
2024-02-29T05:17:20.088Z,7.13
2024-02-29T05:18:11.352Z,5.88
2024-02-29T05:19:02.346Z,5.68
2024-02-29T05:19:53.192Z,6.35
2024-02-29T05:20:44.140Z,6.20
2024-02-29T05:21:35.010Z,6.53
2024-02-29T05:22:26.024Z,7.03
2024-02-29T05:23:16.924Z,6.60
2024-02-29T05:24:07.857Z,6.05
2024-02-29T05:24:59.550Z,7.25
2024-02-29T05:26:41.208Z,6.30
2024-02-29T05:27:32.079Z,6.75
2024-02-29T05:28:22.720Z,6.30
2024-02-29T05:29:13.647Z,6.65
2024-02-29T05:30:05.739Z,7.07
2024-02-29T05:30:57.018Z,6.47
2024-02-29T05:31:53.180Z,7.47
2024-02-29T05:32:44.456Z,6.22
2024-02-29T05:33:35.351Z,6.63
2024-02-29T05:34:26.390Z,6.97
2024-02-29T05:35:17.312Z,6.22
2024-02-29T05:36:08.600Z,6.45
2024-02-29T05:36:59.325Z,7.35
2024-02-29T05:37:50.302Z,6.22
2024-02-29T05:38:41.507Z,7.45
2024-02-29T05:39:35.102Z,6.53
2024-02-29T05:40:27.952Z,6.75
2024-02-29T05:41:19.122Z,7.40
2024-02-29T05:42:10.648Z,7.15
2024-02-29T05:43:04.670Z,6.35
2024-02-29T05:43:55.574Z,7.00
2024-02-29T05:44:46.694Z,6.45
2024-02-29T05:45:37.421Z,6.78
2024-02-29T05:46:30.733Z,6.50
2024-02-29T05:47:22.072Z,6.45
2024-02-29T05:48:12.762Z,7.00
2024-02-29T05:49:03.791Z,6.43
2024-02-29T05:49:56.121Z,6.55
2024-02-29T05:50:46.645Z,7.00
2024-02-29T05:51:37.803Z,7.13
2024-02-29T05:52:28.518Z,6.72
2024-02-29T05:53:19.398Z,7.40
2024-02-29T05:54:10.067Z,6.30
2024-02-29T05:55:01.292Z,5.93
2024-02-29T05:55:52.408Z,7.85
2024-02-29T05:56:43.195Z,6.80
2024-02-29T05:57:35.688Z,6.40
2024-02-29T05:58:31.710Z,7.13
2024-02-29T05:59:22.522Z,6.35
2024-02-29T06:00:14.153Z,8.48
2024-02-29T06:01:05.777Z,6.93
2024-02-29T06:01:56.697Z,7.20
2024-02-29T06:02:49.905Z,5.78
2024-02-29T06:03:41.616Z,7.07
2024-02-29T06:04:32.495Z,6.65
2024-02-29T06:05:23.644Z,7.07
2024-02-29T06:06:17.634Z,6.22
2024-02-29T06:07:08.519Z,6.82
2024-02-29T06:07:59.423Z,6.60
2024-02-29T06:08:50.476Z,6.40
2024-02-29T06:09:42.883Z,7.15
2024-02-29T06:10:34.003Z,6.85
2024-02-29T06:11:25.052Z,6.35
2024-02-29T06:12:16.025Z,6.78
2024-02-29T06:13:06.991Z,7.47
2024-02-29T06:13:57.934Z,7.30
2024-02-29T06:14:48.911Z,5.95
2024-02-29T06:15:39.808Z,7.35
2024-02-29T06:16:30.992Z,7.22
2024-02-29T06:17:22.322Z,7.40
2024-02-29T06:18:14.634Z,7.35
2024-02-29T06:19:05.620Z,7.10
2024-02-29T06:19:56.480Z,7.38
2024-02-29T06:20:49.316Z,6.68
2024-02-29T06:21:39.960Z,6.45
2024-02-29T06:22:30.732Z,7.78
2024-02-29T06:23:21.723Z,7.57
2024-02-29T06:24:19.491Z,7.10
2024-02-29T06:25:11.262Z,7.60
2024-02-29T06:26:13.022Z,7.95
2024-02-29T06:27:04.140Z,7.35
2024-02-29T06:27:54.742Z,7.38
2024-02-29T06:28:45.680Z,7.03
2024-02-29T06:29:36.500Z,7.07
2024-02-29T06:30:33.353Z,7.03
2024-02-29T06:31:26.767Z,7.85
2024-02-29T06:32:17.726Z,7.38
2024-02-29T06:33:08.252Z,7.35
2024-02-29T06:33:59.368Z,7.00
2024-02-29T06:34:50.514Z,7.60
2024-02-29T06:35:41.156Z,7.43
2024-02-29T06:36:32.050Z,7.20
2024-02-29T06:37:22.885Z,7.13
2024-02-29T06:38:13.942Z,8.00
2024-02-29T06:39:08.963Z,7.50
2024-02-29T06:39:59.948Z,7.85
2024-02-29T06:40:50.780Z,7.22
2024-02-29T06:41:44.998Z,7.57
2024-02-29T06:42:36.010Z,7.35
2024-02-29T06:43:28.227Z,7.50
2024-02-29T06:44:20.215Z,7.53
2024-02-29T06:45:11.770Z,7.32
2024-02-29T06:46:06.319Z,6.90
2024-02-29T06:46:57.000Z,7.05
2024-02-29T06:47:48.477Z,8.23
2024-02-29T06:48:40.284Z,7.00
2024-02-29T06:49:31.700Z,7.38
2024-02-29T06:50:22.373Z,7.93
2024-02-29T06:51:13.345Z,8.05
2024-02-29T06:52:04.319Z,7.20
2024-02-29T06:52:55.321Z,6.88
2024-02-29T06:53:46.026Z,7.38
2024-02-29T06:54:37.149Z,7.20
2024-02-29T06:55:28.803Z,7.28
2024-02-29T06:56:19.886Z,6.55
2024-02-29T06:57:11.143Z,7.22
2024-02-29T06:58:04.058Z,7.78
2024-02-29T06:58:54.784Z,7.50
2024-02-29T06:59:45.849Z,6.60
2024-02-29T07:00:36.814Z,7.53
2024-02-29T07:01:28.070Z,6.90
2024-02-29T07:03:10.525Z,6.60
2024-02-29T07:04:01.215Z,7.15
2024-02-29T07:04:52.101Z,5.68
2024-02-29T07:05:43.206Z,7.68
2024-02-29T07:06:35.954Z,7.80
2024-02-29T07:07:26.949Z,7.28
2024-02-29T07:08:17.711Z,7.18
2024-02-29T07:09:08.853Z,6.85
2024-02-29T07:10:00.009Z,7.20
2024-02-29T07:10:50.869Z,9.55
2024-02-29T07:11:41.938Z,8.15
2024-02-29T07:12:32.865Z,7.43
2024-02-29T07:13:23.902Z,7.88
2024-02-29T07:14:15.059Z,8.65
2024-02-29T07:15:06.664Z,8.63
2024-02-29T07:15:57.352Z,7.00
2024-02-29T07:16:48.081Z,6.82
2024-02-29T07:17:39.192Z,7.55
2024-02-29T07:18:30.336Z,8.23
2024-02-29T07:19:21.108Z,8.55
2024-02-29T07:20:14.507Z,6.78
2024-02-29T07:21:05.939Z,7.35
2024-02-29T07:21:56.972Z,7.75
2024-02-29T07:22:48.302Z,8.23
2024-02-29T07:23:38.876Z,8.18
2024-02-29T07:24:30.488Z,8.48
2024-02-29T07:25:21.672Z,7.50
2024-02-29T07:26:12.379Z,6.57
2024-02-29T07:27:03.282Z,8.10
2024-02-29T07:27:55.990Z,7.05
2024-02-29T07:28:46.730Z,8.93
2024-02-29T07:29:37.820Z,7.43
2024-02-29T07:30:28.839Z,7.60
2024-02-29T07:31:21.227Z,7.93
2024-02-29T07:32:12.378Z,7.75
2024-02-29T07:33:03.356Z,7.60
2024-02-29T07:33:55.015Z,8.52
2024-02-29T07:34:45.745Z,7.90
2024-02-29T07:35:37.039Z,7.57
2024-02-29T07:36:28.900Z,7.15
2024-02-29T07:37:19.554Z,7.97
2024-02-29T07:38:10.424Z,7.05
2024-02-29T07:39:01.238Z,7.80
2024-02-29T07:39:52.253Z,6.97
2024-02-29T07:40:43.300Z,6.72
2024-02-29T07:41:34.356Z,7.93
2024-02-29T07:42:24.918Z,7.13
2024-02-29T07:43:15.628Z,7.32
2024-02-29T07:44:08.893Z,7.93
2024-02-29T07:44:59.508Z,7.35
2024-02-29T07:45:51.301Z,7.35
2024-02-29T07:46:42.220Z,7.55
2024-02-29T07:47:32.925Z,8.35
2024-02-29T07:48:25.643Z,7.88
2024-02-29T07:49:16.483Z,8.80
2024-02-29T07:50:07.891Z,7.65
2024-02-29T07:50:58.685Z,7.50
2024-02-29T07:51:49.913Z,8.50
2024-02-29T07:52:40.896Z,7.70
2024-02-29T07:53:31.828Z,8.70
2024-02-29T07:54:22.675Z,7.60
2024-02-29T07:55:15.868Z,7.40
2024-02-29T07:56:08.115Z,7.13
2024-02-29T07:57:50.285Z,7.85
2024-02-29T07:58:41.068Z,7.85
2024-02-29T07:59:31.907Z,8.63
2024-02-29T08:00:22.392Z,8.27
2024-02-29T08:01:14.453Z,9.50
2024-02-29T08:02:05.691Z,7.63
2024-02-29T08:02:56.776Z,8.00
2024-02-29T08:03:47.849Z,9.05
2024-02-29T08:04:38.627Z,8.27
2024-02-29T08:05:29.581Z,8.00
2024-02-29T08:06:20.380Z,8.43
2024-02-29T08:07:12.376Z,8.20
2024-02-29T08:08:03.484Z,7.53
2024-02-29T08:08:54.476Z,7.88
2024-02-29T08:09:45.982Z,8.63
2024-02-29T08:10:36.867Z,7.60
2024-02-29T08:11:27.792Z,8.15
2024-02-29T08:12:18.717Z,7.80
2024-02-29T08:13:09.777Z,7.97
2024-02-29T08:14:00.848Z,9.40
2024-02-29T08:14:51.699Z,8.50
2024-02-29T08:15:42.671Z,8.90
2024-02-29T08:16:33.442Z,7.93
2024-02-29T08:17:28.213Z,7.82
2024-02-29T08:18:19.978Z,7.75
2024-02-29T08:20:01.927Z,7.90
2024-02-29T08:20:52.747Z,7.55
2024-02-29T08:21:43.696Z,8.30
2024-02-29T08:22:36.442Z,8.57
2024-02-29T08:23:27.628Z,7.70
2024-02-29T08:24:18.432Z,8.20
2024-02-29T08:25:09.867Z,8.30
2024-02-29T08:26:00.968Z,9.20
2024-02-29T08:26:52.003Z,8.85
2024-02-29T08:27:42.586Z,8.93
2024-02-29T08:28:33.465Z,8.82
2024-02-29T08:29:24.462Z,8.10
2024-02-29T08:30:15.510Z,8.73
2024-02-29T08:31:07.221Z,8.77
2024-02-29T08:31:58.346Z,9.20
2024-02-29T08:32:49.918Z,7.90
2024-02-29T08:33:40.818Z,7.75
2024-02-29T08:34:32.104Z,8.18
2024-02-29T08:35:22.768Z,9.13
2024-02-29T08:36:14.111Z,9.35
2024-02-29T08:37:05.001Z,7.70
2024-02-29T08:37:57.914Z,8.05
2024-02-29T08:38:49.401Z,8.77
2024-02-29T08:39:42.600Z,8.27
2024-02-29T08:40:33.849Z,8.55
2024-02-29T08:41:25.406Z,8.70
2024-02-29T08:42:15.896Z,8.63
2024-02-29T08:43:07.162Z,8.27
2024-02-29T08:43:57.777Z,8.93
2024-02-29T08:44:49.975Z,8.05
2024-02-29T08:46:31.345Z,8.88
2024-02-29T08:47:22.151Z,8.85
2024-02-29T08:48:13.287Z,8.35
2024-02-29T08:49:04.322Z,8.55
2024-02-29T08:49:55.313Z,9.50
2024-02-29T08:50:46.363Z,8.80
2024-02-29T08:51:37.436Z,9.07
2024-02-29T08:52:28.820Z,9.93
2024-02-29T08:53:19.897Z,8.18
2024-02-29T08:54:11.022Z,9.30
2024-02-29T08:55:02.162Z,9.45
2024-02-29T08:55:53.161Z,9.90
2024-02-29T08:56:44.051Z,8.13
2024-02-29T08:57:35.666Z,8.52
2024-02-29T08:58:26.446Z,8.73
2024-02-29T08:59:18.659Z,8.52
2024-02-29T09:00:10.641Z,8.15
2024-02-29T09:01:02.158Z,8.50
2024-02-29T09:02:46.147Z,8.30
2024-02-29T09:03:37.151Z,8.38
2024-02-29T09:04:30.423Z,8.15
2024-02-29T09:05:20.988Z,8.57
2024-02-29T09:06:13.762Z,8.70
2024-02-29T09:07:04.773Z,8.70
2024-02-29T09:07:55.671Z,8.85
2024-02-29T09:08:46.611Z,8.85
2024-02-29T09:09:37.772Z,9.43
2024-02-29T09:10:28.965Z,8.55
2024-02-29T09:11:20.059Z,8.80
2024-02-29T09:12:11.632Z,8.82
2024-02-29T09:13:12.070Z,8.77
2024-02-29T09:14:11.910Z,9.35
2024-02-29T09:15:03.645Z,8.80
2024-02-29T09:16:45.233Z,8.88
2024-02-29T09:17:36.111Z,9.05
2024-02-29T09:18:27.109Z,8.57
2024-02-29T09:19:18.290Z,8.95
2024-02-29T09:20:09.773Z,9.30
2024-02-29T09:21:00.420Z,8.43
2024-02-29T09:21:51.322Z,8.32
2024-02-29T09:22:42.140Z,8.70
2024-02-29T09:23:32.933Z,9.85
2024-02-29T09:24:23.635Z,8.80
2024-02-29T09:25:14.622Z,9.73
2024-02-29T09:26:05.638Z,9.35
2024-02-29T09:26:56.501Z,8.57
2024-02-29T09:27:47.408Z,9.80
2024-02-29T09:28:38.232Z,8.73
2024-02-29T09:29:31.958Z,8.30
2024-02-29T09:30:25.032Z,10.07
2024-02-29T09:31:16.003Z,9.32
2024-02-29T09:32:06.967Z,9.57
2024-02-29T09:32:58.025Z,8.07
2024-02-29T09:33:48.951Z,9.27
2024-02-29T09:34:44.887Z,8.93
2024-02-29T09:35:38.770Z,8.43
2024-02-29T09:36:32.314Z,10.15
2024-02-29T09:37:23.386Z,9.57
2024-02-29T09:38:14.185Z,8.73
2024-02-29T09:39:06.533Z,9.00
2024-02-29T09:39:57.645Z,8.82
2024-02-29T09:40:52.575Z,8.65
2024-02-29T09:42:08.155Z,8.80
2024-02-29T09:43:01.929Z,8.35
2024-02-29T09:43:54.676Z,9.00
2024-02-29T09:44:47.657Z,10.27
2024-02-29T09:45:41.884Z,8.30
2024-02-29T09:46:32.903Z,8.38
2024-02-29T09:47:25.338Z,8.98
2024-02-29T09:48:16.622Z,8.93
2024-02-29T09:49:09.126Z,8.38
2024-02-29T09:50:04.763Z,9.80
2024-02-29T09:51:02.966Z,9.35
2024-02-29T09:51:54.256Z,8.35
2024-02-29T09:52:46.971Z,9.18
2024-02-29T09:53:39.023Z,9.40
2024-02-29T09:54:33.243Z,8.48
2024-02-29T09:55:24.629Z,8.25
2024-02-29T09:56:16.044Z,7.72
2024-02-29T09:57:16.028Z,8.23
2024-02-29T09:58:09.343Z,8.45
2024-02-29T09:59:01.877Z,8.45
2024-02-29T09:59:52.685Z,8.90
2024-02-29T10:00:43.507Z,9.07
2024-02-29T10:01:34.334Z,8.80
2024-02-29T10:02:25.515Z,9.05
2024-02-29T10:03:19.541Z,8.82
2024-02-29T10:04:10.590Z,8.57
2024-02-29T10:05:01.908Z,8.57
2024-02-29T10:05:53.575Z,9.10
2024-02-29T10:06:44.998Z,9.25
2024-02-29T10:07:48.906Z,8.35
2024-02-29T10:08:40.293Z,8.63
2024-02-29T10:09:31.527Z,8.10
2024-02-29T10:10:22.433Z,10.38
2024-02-29T10:11:13.836Z,8.45
2024-02-29T10:12:05.467Z,9.63
2024-02-29T10:12:56.913Z,8.65
2024-02-29T10:13:48.433Z,10.45
2024-02-29T10:14:39.004Z,8.93
2024-02-29T10:15:30.186Z,8.52
2024-02-29T10:16:21.216Z,8.60
2024-02-29T10:17:12.089Z,8.07
2024-02-29T10:18:04.124Z,9.00
2024-02-29T10:18:55.247Z,8.00
2024-02-29T10:19:51.626Z,9.60
2024-02-29T10:20:43.914Z,8.73
2024-02-29T10:21:35.569Z,9.15
2024-02-29T10:22:26.165Z,8.88
2024-02-29T10:23:16.932Z,9.32
2024-02-29T10:24:07.677Z,10.02
2024-02-29T10:24:59.234Z,8.95
2024-02-29T10:25:51.629Z,10.02
2024-02-29T10:26:42.433Z,9.23
2024-02-29T10:27:33.491Z,9.23
2024-02-29T10:28:24.464Z,8.73
2024-02-29T10:29:17.770Z,9.55
2024-02-29T10:30:16.083Z,7.63
2024-02-29T10:31:06.625Z,9.85
2024-02-29T10:31:59.021Z,9.45
2024-02-29T10:32:49.900Z,10.23
2024-02-29T10:33:48.973Z,9.73
2024-02-29T10:34:40.911Z,8.90
2024-02-29T10:35:32.111Z,7.90
2024-02-29T10:36:24.195Z,9.23
2024-02-29T10:37:15.030Z,8.57
2024-02-29T10:38:09.506Z,8.77
2024-02-29T10:39:00.572Z,8.82
2024-02-29T10:39:51.608Z,8.07
2024-02-29T10:40:42.407Z,8.90
2024-02-29T10:41:37.944Z,8.35
2024-02-29T10:42:28.852Z,9.32
2024-02-29T10:43:21.880Z,8.35
2024-02-29T10:44:13.509Z,8.82
2024-02-29T10:45:06.945Z,9.32
2024-02-29T10:46:00.871Z,9.73
2024-02-29T10:46:54.535Z,10.48
2024-02-29T10:48:16.058Z,9.52
2024-02-29T10:49:29.054Z,8.70
2024-02-29T10:50:25.852Z,8.32
2024-02-29T10:51:33.440Z,9.65
2024-02-29T10:52:31.269Z,10.10
2024-02-29T10:53:43.458Z,8.65
2024-02-29T10:54:43.440Z,8.23
2024-02-29T10:55:43.181Z,9.38
2024-02-29T10:56:36.007Z,8.98
2024-02-29T10:57:29.334Z,8.40
2024-02-29T10:58:27.132Z,8.55
2024-02-29T11:00:12.914Z,8.75
2024-02-29T11:01:08.018Z,9.18
2024-02-29T11:02:00.439Z,8.05
2024-02-29T11:02:54.228Z,9.00
2024-02-29T11:03:47.033Z,9.50
2024-02-29T11:04:38.006Z,8.50
2024-02-29T11:05:29.036Z,8.43
2024-02-29T11:06:21.469Z,8.77
2024-02-29T11:07:12.312Z,9.35
2024-02-29T11:08:03.855Z,10.10
2024-02-29T11:09:47.232Z,8.48
2024-02-29T11:11:30.511Z,8.38
2024-02-29T11:12:22.716Z,9.60
2024-02-29T11:13:19.538Z,8.63
2024-02-29T11:14:11.683Z,7.78
2024-02-29T11:15:56.717Z,8.27
2024-02-29T11:16:47.878Z,8.75
2024-02-29T11:17:41.093Z,8.43
2024-02-29T11:18:33.932Z,8.82
2024-02-29T11:19:28.222Z,8.07
2024-02-29T11:20:22.775Z,8.13
2024-02-29T11:21:13.774Z,7.45
2024-02-29T11:22:11.907Z,9.48
2024-02-29T11:23:10.373Z,8.05
2024-02-29T11:24:06.772Z,9.27
2024-02-29T11:24:57.676Z,8.27
2024-02-29T11:25:52.001Z,8.23
2024-02-29T11:26:43.719Z,9.32
2024-02-29T11:27:35.562Z,8.75
2024-02-29T11:28:34.470Z,8.60
2024-02-29T11:29:25.861Z,8.57
2024-02-29T11:31:23.273Z,8.85
2024-02-29T11:32:14.223Z,9.60
2024-02-29T11:33:10.653Z,9.10
2024-02-29T11:34:01.875Z,8.95
2024-02-29T11:34:52.873Z,9.18
2024-02-29T11:35:43.748Z,8.45
2024-02-29T11:36:37.106Z,8.68
2024-02-29T11:37:34.673Z,9.05
2024-02-29T11:38:32.632Z,9.60
2024-02-29T11:39:27.144Z,8.30
2024-02-29T11:40:18.367Z,8.80
2024-02-29T11:41:16.022Z,9.25
2024-02-29T11:42:07.862Z,9.00
2024-02-29T11:43:02.621Z,9.60
2024-02-29T11:43:54.521Z,9.18